^^
Datos históricos de la estación: Murcia-Puente Tocinos
Diario Informe para Octubre 5, 2021 Unidades:  Métrico    Ingés   Ambas
Diario Semanal Mensual Anual
  Máxima: Mínima: Promedio:
Temperatura: 18.4 °C 13.4 °C 15.6 °C
Punto de rocio: 9.4 °C 7.9 °C 8.6 °C
Humedad: 74.2% 51% 63%
Velocidad viento: 10km/h 2.3km/h 6.3km/h
Racha viento: 16.7km/h - -
Viento- - SSO
Presión: 1020.4 hPa 1019.1 hPa -
Precipitación: 0.0 mm    
 
 
Tabla de datos para Octubre 5, 2021
Hora Temperatura Punto de rocio Presión Viento Velocidad viento Racha viento Humedad Intensidad lluvia(por hora) Nubes
00:04 18.4 °C 8.1 °C 1019.7 hPa SSO 6.4 km/h 9.3 km/h 51% 0.0 mm
00:09 18.3 °C 8.2 °C 1019.8 hPa SSO 6.2 km/h 7.6 km/h 52% 0.0 mm
00:14 18.2 °C 8.2 °C 1019.8 hPa SSO 5.8 km/h 5.6 km/h 52% 0.0 mm
00:19 18.2 °C 8.4 °C 1019.8 hPa SSO 4.6 km/h 7.6 km/h 52.9% 0.0 mm
00:24 18.1 °C 8.4 °C 1019.9 hPa SSO 2.9 km/h 8.4 km/h 53% 0.0 mm
00:29 18.1 °C 8.4 °C 1019.9 hPa SSO 3.6 km/h 7.4 km/h 53% 0.0 mm
00:34 18.1 °C 8.4 °C 1019.9 hPa Sur 4.7 km/h 8.4 km/h 53% 0.0 mm
00:39 18.1 °C 8.5 °C 1019.9 hPa SE 4.8 km/h 8.4 km/h 53.5% 0.0 mm
00:44 17.8 °C 8.6 °C 1019.8 hPa SE 5 km/h 8.4 km/h 54.6% 0.0 mm
00:49 17.7 °C 8.8 °C 1019.8 hPa SE 4.9 km/h 10 km/h 56% 0.0 mm
00:54 17.4 °C 8.8 °C 1019.8 hPa SSE 4.7 km/h 11.9 km/h 57% 0.0 mm
00:59 17.2 °C 8.8 °C 1019.8 hPa SSE 5.9 km/h 11.9 km/h 58% 0.0 mm
01:04 17 °C 8.8 °C 1019.8 hPa Sur 7.6 km/h 11.1 km/h 58.4% 0.0 mm
01:09 17 °C 8.7 °C 1019.9 hPa SSO 7.6 km/h 11.1 km/h 58% 0.0 mm
01:14 17.2 °C 8.7 °C 1019.9 hPa SO 7.6 km/h 13 km/h 57.4% 0.0 mm
01:19 17.2 °C 8.5 °C 1019.9 hPa SO 7.3 km/h 11.9 km/h 56.4% 0.0 mm
01:24 17.3 °C 8.4 °C 1020.0 hPa SO 6.9 km/h 11.1 km/h 56% 0.0 mm
01:29 17.3 °C 8.3 °C 1020.0 hPa OSO 6.7 km/h 9.5 km/h 55.4% 0.0 mm
01:34 17.3 °C 8.2 °C 1020.0 hPa OSO 6.4 km/h 8.7 km/h 55.2% 0.0 mm
01:39 17.2 °C 8.4 °C 1020.0 hPa SO 5.9 km/h 10 km/h 56% 0.0 mm
01:44 17.1 °C 8.2 °C 1020.0 hPa SSO 5 km/h 11.1 km/h 56% 0.0 mm
01:49 17.2 °C 8.2 °C 1020.0 hPa Sur 5.7 km/h 11.1 km/h 55.8% 0.0 mm
01:54 17.2 °C 8.3 °C 1020.0 hPa SO 6.9 km/h 7.6 km/h 56% 0.0 mm
01:59 17.2 °C 8.3 °C 1019.8 hPa SO 6.1 km/h 8.4 km/h 56% 0.0 mm
02:04 17.1 °C 8.2 °C 1019.8 hPa OSO 5 km/h 8.4 km/h 56% 0.0 mm
02:09 17 °C 8.4 °C 1020.0 hPa Oeste 4.9 km/h 7.4 km/h 57% 0.0 mm
02:14 16.9 °C 8.4 °C 1020.0 hPa Oeste 4.7 km/h 7.6 km/h 57.5% 0.0 mm
02:19 16.7 °C 8.5 °C 1020.0 hPa OSO 4.4 km/h 8.4 km/h 58.2% 0.0 mm
02:24 16.5 °C 8.5 °C 1020.0 hPa OSO 3.9 km/h 7.6 km/h 59.1% 0.0 mm
02:29 16.4 °C 8.6 °C 1020.0 hPa SO 4.3 km/h 11.1 km/h 60% 0.0 mm
02:34 16.3 °C 8.5 °C 1020.0 hPa SO 5 km/h 13 km/h 59.8% 0.0 mm
02:39 16.4 °C 8.4 °C 1020.0 hPa SO 5.7 km/h 11.1 km/h 59.1% 0.0 mm
02:44 16.4 °C 8.4 °C 1019.9 hPa SO 6.9 km/h 10.3 km/h 59% 0.0 mm
02:49 16.4 °C 8.5 °C 1019.9 hPa SO 6.5 km/h 9.3 km/h 59.6% 0.0 mm
02:54 16.4 °C 8.7 °C 1019.9 hPa SSE 5.8 km/h 7.4 km/h 60.5% 0.0 mm
02:59 16.3 °C 9 °C 1019.8 hPa ESE 4.8 km/h 4.7 km/h 62% 0.0 mm
03:04 16.2 °C 9.1 °C 1019.8 hPa ESE 3.2 km/h 4.7 km/h 62.4% 0.0 mm
03:09 16.1 °C 9.1 °C 1020.0 hPa ESE 2.9 km/h 4.7 km/h 63% 0.0 mm
03:14 16 °C 8.9 °C 1020.0 hPa SSE 2.3 km/h 7.4 km/h 63% 0.0 mm
03:19 15.8 °C 8.8 °C 1020.0 hPa OSO 2.6 km/h 7.6 km/h 63% 0.0 mm
03:24 15.7 °C 8.7 °C 1020.0 hPa SO 3.2 km/h 7.4 km/h 63% 0.0 mm
03:29 15.7 °C 8.8 °C 1019.9 hPa SO 3.5 km/h 7.4 km/h 63.5% 0.0 mm
03:34 15.7 °C 8.9 °C 1019.9 hPa SSO 3.9 km/h 7.6 km/h 64% 0.0 mm
03:39 15.6 °C 8.8 °C 1019.9 hPa Sur 4.3 km/h 10 km/h 64% 0.0 mm
03:44 15.5 °C 8.7 °C 1019.8 hPa SSO 5 km/h 11.1 km/h 64.1% 0.0 mm
03:49 15.4 °C 8.8 °C 1019.8 hPa SSO 5.5 km/h 9.3 km/h 65% 0.0 mm
03:54 15.3 °C 8.8 °C 1019.8 hPa SSO 6.4 km/h 9.3 km/h 65% 0.0 mm
03:59 15.3 °C 8.8 °C 1019.5 hPa SSO 6.4 km/h 11.1 km/h 65.2% 0.0 mm
04:04 15.2 °C 8.7 °C 1019.5 hPa SSO 6.4 km/h 14.8 km/h 65% 0.0 mm
04:09 15.2 °C 8.6 °C 1019.5 hPa SSO 7.3 km/h 13 km/h 64.5% 0.0 mm
04:14 15.2 °C 8.4 °C 1019.4 hPa SSO 8.7 km/h 14.8 km/h 64% 0.0 mm
04:19 15.2 °C 8.4 °C 1019.4 hPa SSO 8.7 km/h 11.1 km/h 64% 0.0 mm
04:24 15.2 °C 8.4 °C 1019.4 hPa SSO 8.7 km/h 14.8 km/h 64% 0.0 mm
04:29 15.2 °C 8.4 °C 1019.3 hPa SSO 8.7 km/h 14.8 km/h 64% 0.0 mm
04:34 15.2 °C 8.3 °C 1019.3 hPa SSO 8.7 km/h 14.8 km/h 63.6% 0.0 mm
04:39 15.2 °C 8.2 °C 1019.3 hPa SSO 8.7 km/h 16.4 km/h 63% 0.0 mm
04:44 15.2 °C 8.2 °C 1019.2 hPa SSO 8.7 km/h 16.7 km/h 62.7% 0.0 mm
04:49 15.3 °C 8.1 °C 1019.2 hPa SSO 9.2 km/h 16.7 km/h 62% 0.0 mm
04:54 15.3 °C 8 °C 1019.2 hPa SSO 10 km/h 13.7 km/h 61.5% 0.0 mm
04:59 15.4 °C 7.9 °C 1019.1 hPa Sur 9.8 km/h 13 km/h 61% 0.0 mm
05:04 15.5 °C 8 °C 1019.1 hPa SSO 9.5 km/h 13 km/h 61% 0.0 mm
05:09 15.4 °C 8 °C 1019.1 hPa Sur 9.5 km/h 13 km/h 61.3% 0.0 mm
05:14 15.3 °C 8.1 °C 1019.1 hPa Sur 9.5 km/h 13 km/h 62.1% 0.0 mm
05:19 15.3 °C 8.3 °C 1019.1 hPa SSO 8.8 km/h 9.5 km/h 63% 0.0 mm
05:24 15.2 °C 8.2 °C 1019.2 hPa SSO 7.6 km/h 8.4 km/h 63% 0.0 mm
05:29 15.2 °C 8.4 °C 1019.2 hPa SSO 7.1 km/h 9.5 km/h 64% 0.0 mm
05:34 15.2 °C 8.4 °C 1019.2 hPa SO 6.4 km/h 7.4 km/h 64% 0.0 mm
05:39 15.2 °C 8.4 °C 1019.2 hPa SO 5.2 km/h 6.4 km/h 64% 0.0 mm
05:44 15.2 °C 8.4 °C 1019.1 hPa SO 3.2 km/h 9.5 km/h 64% 0.0 mm
05:49 15.1 °C 8.3 °C 1019.1 hPa SO 4.5 km/h 13 km/h 63.7% 0.0 mm
05:54 15.1 °C 8.2 °C 1019.2 hPa SSO 6.4 km/h 9.5 km/h 63.4% 0.0 mm
05:59 15.1 °C 8.3 °C 1019.2 hPa Sur 5.8 km/h 7.4 km/h 64% 0.0 mm
06:04 15.1 °C 8.4 °C 1019.2 hPa Sur 5 km/h 7.4 km/h 64.3% 0.0 mm
06:09 15.1 °C 8.6 °C 1019.4 hPa SSE 4.9 km/h 9.5 km/h 65.4% 0.0 mm
06:14 14.9 °C 8.9 °C 1019.4 hPa SE 4.7 km/h 9.3 km/h 67.3% 0.0 mm
06:19 14.6 °C 9 °C 1019.4 hPa SE 5.1 km/h 11.1 km/h 68.9% 0.0 mm
06:24 14.2 °C 9 °C 1019.5 hPa SSE 5.8 km/h 11.1 km/h 70.8% 0.0 mm
06:29 13.8 °C 9 °C 1019.5 hPa SSE 6.5 km/h 13 km/h 72.6% 0.0 mm
06:34 13.6 °C 9 °C 1019.5 hPa SSE 7.6 km/h 13 km/h 74% 0.0 mm
06:39 13.4 °C 8.9 °C 1019.5 hPa Sur 7.9 km/h 11.1 km/h 74.2% 0.0 mm
06:44 13.4 °C 8.8 °C 1019.5 hPa SSE 8.4 km/h 11.1 km/h 74% 0.0 mm
06:49 13.5 °C 9 °C 1019.5 hPa Sur 8.1 km/h 13.7 km/h 74% 0.0 mm
06:54 13.7 °C 8.9 °C 1019.5 hPa Sur 7.6 km/h 14.8 km/h 73.3% 0.0 mm
06:59 13.8 °C 8.9 °C 1019.5 hPa SSO 8 km/h 12.2 km/h 72.4% 0.0 mm
07:04 13.9 °C 8.7 °C 1019.5 hPa SSO 8.7 km/h 13 km/h 71% 0.0 mm
07:09 14.1 °C 8.6 °C 1019.6 hPa SO 8.3 km/h 11.1 km/h 69.8% 0.0 mm
07:14 14.2 °C 8.5 °C 1019.6 hPa SO 7.6 km/h 11.1 km/h 68.5% 0.0 mm
07:19 14.3 °C 8.4 °C 1019.6 hPa OSO 7.3 km/h 10.3 km/h 67.8% 0.0 mm
07:24 14.4 °C 8.3 °C 1019.7 hPa OSO 6.9 km/h 11.1 km/h 67% 0.0 mm
07:29 14.4 °C 8.3 °C 1019.7 hPa OSO 6.9 km/h 10 km/h 67% 0.0 mm
07:34 14.4 °C 8.3 °C 1019.7 hPa SO 6.9 km/h 11.9 km/h 67% 0.0 mm
07:39 14.4 °C 8.3 °C 1019.7 hPa SSO 7.2 km/h 14 km/h 67% 0.0 mm
07:44 14.4 °C 8.3 °C 1019.7 hPa SSO 7.6 km/h 14.8 km/h 67% 0.0 mm
07:49 14.5 °C 8.4 °C 1019.7 hPa SSE 7.1 km/h 8.4 km/h 67% 0.0 mm
07:54 14.5 °C 8.5 °C 1019.8 hPa SE 6.4 km/h 10 km/h 67.4% 0.0 mm
07:59 14.2 °C 8.6 °C 1019.8 hPa SE 6.2 km/h 10 km/h 68.9% 0.0 mm
08:04 13.9 °C 8.6 °C 1019.8 hPa SE 5.8 km/h 13 km/h 70.4% 0.0 mm
08:09 13.7 °C 8.6 °C 1020.0 hPa SSE 6.4 km/h 13 km/h 71.2% 0.0 mm
08:14 13.6 °C 8.7 °C 1020.0 hPa SE 7.6 km/h 11.9 km/h 72.1% 0.0 mm
08:19 13.6 °C 8.8 °C 1020.0 hPa SE 7.6 km/h 9.5 km/h 73% 0.0 mm
08:24 13.6 °C 8.9 °C 1020.1 hPa SE 7.6 km/h 7.4 km/h 73% 0.0 mm
08:29 13.7 °C 9 °C 1020.1 hPa SE 6.1 km/h 7.4 km/h 73% 0.0 mm
08:34 13.8 °C 9.1 °C 1020.1 hPa Sur 3.9 km/h 7.4 km/h 73% 0.0 mm
08:39 14 °C 9 °C 1020.2 hPa SSO 4.2 km/h 8.7 km/h 71.9% 0.0 mm
08:44 14.2 °C 8.9 °C 1020.2 hPa Sur 4.7 km/h 9.5 km/h 70.4% 0.0 mm
08:49 14.4 °C 8.9 °C 1020.2 hPa SSO 5.1 km/h 7.6 km/h 69.5% 0.0 mm
08:54 14.7 °C 9 °C 1020.3 hPa SSO 5.8 km/h 8.7 km/h 68.5% 0.0 mm
08:59 14.9 °C 8.9 °C 1020.3 hPa SSO 5.5 km/h 9.3 km/h 67.1% 0.0 mm
09:04 15.2 °C 8.8 °C 1020.3 hPa SSO 5 km/h 8.4 km/h 65.6% 0.0 mm
09:09 15.3 °C 8.7 °C 1020.3 hPa Sur 5.3 km/h 11.1 km/h 64.7% 0.0 mm
09:14 15.6 °C 9 °C 1020.2 hPa SSO 5.8 km/h 10 km/h 64.9% 0.0 mm
09:19 15.7 °C 8.9 °C 1020.2 hPa Sur 6 km/h 13 km/h 64% 0.0 mm
09:24 15.7 °C 8.8 °C 1020.3 hPa Sur 6.4 km/h 11.1 km/h 63.5% 0.0 mm
09:29 15.7 °C 8.5 °C 1020.3 hPa SSO 7.2 km/h 13 km/h 62.2% 0.0 mm
09:34 15.8 °C 9 °C 1020.3 hPa SSE 8.4 km/h 11.1 km/h 64% 0.0 mm
09:39 15.8 °C 9.4 °C 1020.4 hPa Sur 7.6 km/h 9.5 km/h 65.9% 0.0 mm
Murcia-Puente Tocinos, Espa?a
Compliments of Weather Underground - 2 mb

La estación de MeteoMurcia.com, publica sus datos en los siguientes proyectos:

Weather Underground PWS IMURCIAP2 Meteoclimatic www.awekas.at

W3Counter
Web Analytics